createdAt,value
2022-08-10T00:01:55.947Z,69.55
2022-08-10T00:04:25.727Z,69.90
2022-08-10T00:06:55.774Z,70.33
2022-08-10T00:09:25.662Z,70.46
2022-08-10T00:11:55.525Z,70.72
2022-08-10T00:14:25.408Z,70.69
2022-08-10T00:16:55.349Z,70.96
2022-08-10T00:19:25.498Z,70.68
2022-08-10T00:22:16.991Z,70.36
2022-08-10T00:24:47.022Z,70.42
2022-08-10T00:27:52.376Z,70.09
2022-08-10T00:30:07.399Z,70.68
2022-08-10T00:32:37.271Z,70.60
2022-08-10T00:35:07.665Z,71.08
2022-08-10T00:37:37.564Z,71.39
2022-08-10T00:40:09.269Z,71.54
2022-08-10T00:42:39.493Z,71.84
2022-08-10T00:45:09.851Z,71.96
2022-08-10T00:47:39.900Z,72.41
2022-08-10T00:50:10.702Z,72.72
2022-08-10T00:52:40.577Z,73.18
2022-08-10T00:55:10.760Z,73.46
2022-08-10T00:57:40.829Z,73.68
2022-08-10T01:00:11.912Z,73.88
2022-08-10T01:02:41.969Z,74.08
2022-08-10T01:05:12.549Z,74.28
2022-08-10T01:07:46.942Z,74.85
2022-08-10T01:10:19.791Z,75.21
2022-08-10T01:12:52.009Z,75.58
2022-08-10T01:15:24.067Z,75.64
2022-08-10T01:17:56.106Z,75.80
2022-08-10T01:20:31.000Z,76.02
2022-08-10T01:23:11.540Z,76.23
2022-08-10T01:26:11.600Z,76.41
2022-08-10T01:28:40.504Z,76.67
2022-08-10T01:31:10.526Z,76.62
2022-08-10T01:33:58.101Z,76.57
2022-08-10T01:36:32.265Z,76.54
2022-08-10T01:39:03.566Z,76.77
2022-08-10T01:41:46.137Z,76.74
2022-08-10T01:44:20.407Z,76.56
2022-08-10T01:46:52.012Z,76.23
2022-08-10T01:49:27.130Z,76.29
2022-08-10T01:52:00.474Z,76.19
2022-08-10T01:54:31.151Z,76.21
2022-08-10T01:57:01.244Z,75.83
2022-08-10T01:59:31.902Z,75.50
2022-08-10T02:02:03.345Z,75.14
2022-08-10T02:04:34.371Z,74.93
2022-08-10T02:07:04.569Z,75.12
2022-08-10T02:09:34.621Z,74.87
2022-08-10T02:12:08.617Z,74.66
2022-08-10T02:14:40.870Z,74.46
2022-08-10T02:17:59.065Z,74.15
2022-08-10T02:20:04.425Z,73.86
2022-08-10T02:22:45.659Z,73.62
2022-08-10T02:25:40.706Z,73.64
2022-08-10T02:28:06.165Z,73.73
2022-08-10T02:30:36.013Z,73.71
2022-08-10T02:33:06.119Z,73.58
2022-08-10T02:35:53.746Z,73.99
2022-08-10T02:38:58.622Z,73.71
2022-08-10T02:45:15.497Z,73.37
2022-08-10T02:45:21.565Z,73.25
2022-08-10T02:47:00.497Z,72.82
2022-08-10T02:49:33.745Z,72.66
2022-08-10T02:52:08.190Z,72.44
2022-08-10T02:54:39.117Z,72.41
2022-08-10T02:57:10.922Z,72.40
2022-08-10T02:59:41.594Z,72.28
2022-08-10T03:02:12.489Z,72.22
2022-08-10T03:04:55.091Z,72.37
2022-08-10T03:07:43.320Z,72.50
2022-08-10T03:10:15.912Z,72.44
2022-08-10T03:12:45.719Z,72.37
2022-08-10T03:15:16.245Z,72.18
2022-08-10T03:17:57.114Z,72.10
2022-08-10T03:20:36.909Z,71.86
2022-08-10T03:23:11.892Z,71.87
2022-08-10T03:25:53.249Z,71.74
2022-08-10T03:28:24.842Z,71.60
2022-08-10T03:30:54.767Z,71.54
2022-08-10T03:33:24.829Z,71.61
2022-08-10T03:36:42.445Z,71.52
2022-08-10T03:38:48.865Z,71.54
2022-08-10T03:41:20.084Z,71.42
2022-08-10T03:43:50.215Z,71.69
2022-08-10T03:46:20.553Z,71.58
2022-08-10T03:48:51.698Z,71.58
2022-08-10T03:51:22.092Z,71.52
2022-08-10T03:54:03.588Z,71.42
2022-08-10T03:56:37.779Z,71.29
2022-08-10T03:59:08.277Z,71.33
2022-08-10T04:02:43.628Z,71.30
2022-08-10T04:04:28.653Z,71.42
2022-08-10T04:06:58.821Z,71.36
2022-08-10T04:09:43.341Z,71.05
2022-08-10T04:12:19.502Z,71.09
2022-08-10T04:14:52.376Z,71.07
2022-08-10T04:18:03.975Z,70.97
2022-08-10T04:20:15.368Z,71.26
2022-08-10T04:22:45.183Z,71.53
2022-08-10T04:25:15.633Z,71.70
2022-08-10T04:27:45.907Z,72.04
2022-08-10T04:30:16.284Z,72.28
2022-08-10T04:32:47.121Z,72.35
2022-08-10T04:35:17.329Z,72.43
2022-08-10T04:37:47.815Z,72.51
2022-08-10T04:40:29.488Z,72.50
2022-08-10T04:43:11.673Z,72.39
2022-08-10T04:45:47.786Z,72.30
2022-08-10T04:48:42.057Z,72.22
2022-08-10T04:51:10.994Z,72.36
2022-08-10T04:54:05.223Z,72.05
2022-08-10T04:56:35.153Z,71.94
2022-08-10T04:59:05.383Z,71.67
2022-08-10T05:02:09.858Z,71.23
2022-08-10T05:04:35.097Z,70.41
2022-08-10T05:07:10.075Z,69.79
2022-08-10T05:10:00.452Z,69.05
2022-08-10T05:12:30.343Z,68.15
2022-08-10T05:15:00.349Z,67.43
2022-08-10T05:17:30.205Z,66.62
2022-08-10T05:20:03.102Z,66.11
2022-08-10T05:22:37.510Z,64.82
2022-08-10T05:25:09.116Z,64.86
2022-08-10T05:27:39.821Z,63.83
2022-08-10T05:30:10.814Z,62.32
2022-08-10T05:32:57.755Z,61.35
2022-08-10T05:35:56.526Z,61.30
2022-08-10T05:38:19.704Z,59.18
2022-08-10T05:40:50.014Z,58.15
2022-08-10T05:43:20.628Z,56.96
2022-08-10T05:46:18.083Z,55.47
2022-08-10T05:48:58.746Z,54.92
2022-08-10T05:51:31.032Z,54.60
2022-08-10T05:54:06.106Z,54.73
2022-08-10T05:56:54.727Z,55.39
2022-08-10T06:00:11.020Z,56.12
2022-08-10T06:02:32.897Z,55.76
2022-08-10T06:05:09.528Z,55.88
2022-08-10T06:07:40.836Z,55.48
2022-08-10T06:10:12.785Z,54.80
2022-08-10T06:12:54.406Z,54.34
2022-08-10T06:15:50.478Z,54.30
2022-08-10T06:18:16.865Z,54.01
2022-08-10T06:20:47.414Z,53.29
2022-08-10T06:23:17.784Z,52.97
2022-08-10T06:26:08.832Z,50.43
2022-08-10T06:28:39.241Z,50.36
2022-08-10T06:31:09.158Z,50.28
2022-08-10T06:33:39.647Z,50.29
2022-08-10T06:36:09.489Z,50.29
2022-08-10T06:38:40.206Z,50.52
2022-08-10T06:41:17.986Z,50.76
2022-08-10T06:43:51.469Z,50.87
2022-08-10T06:46:21.998Z,50.78
2022-08-10T06:48:52.692Z,50.57
2022-08-10T06:51:24.528Z,50.25
2022-08-10T06:53:55.410Z,50.39
2022-08-10T06:56:37.668Z,49.73
2022-08-10T06:59:13.446Z,49.22
2022-08-10T07:01:53.766Z,48.78
2022-08-10T07:04:32.258Z,49.39
2022-08-10T07:07:07.079Z,48.72
2022-08-10T07:09:38.488Z,48.71
2022-08-10T07:12:09.678Z,49.00
2022-08-10T07:14:40.556Z,48.64
2022-08-10T07:17:15.348Z,48.73
2022-08-10T07:19:49.457Z,48.73
2022-08-10T07:23:50.775Z,48.61
2022-08-10T07:25:11.832Z,48.73
2022-08-10T07:28:00.922Z,48.97
2022-08-10T07:30:32.352Z,48.69
2022-08-10T07:33:03.108Z,48.76
2022-08-10T07:35:41.805Z,48.62
2022-08-10T07:38:14.998Z,49.15
2022-08-10T07:40:44.955Z,49.74
2022-08-10T07:43:15.173Z,49.13
2022-08-10T07:45:45.091Z,49.30
2022-08-10T07:48:15.469Z,49.45
2022-08-10T07:50:46.681Z,49.22
2022-08-10T07:53:19.068Z,48.06
2022-08-10T07:56:05.100Z,48.02
2022-08-10T07:58:40.070Z,47.42
2022-08-10T08:01:16.646Z,46.93
2022-08-10T08:04:10.853Z,46.72
2022-08-10T08:06:38.713Z,46.22
2022-08-10T08:09:08.717Z,46.23
2022-08-10T08:11:40.951Z,46.17
2022-08-10T08:14:11.330Z,46.06
2022-08-10T08:16:41.995Z,46.21
2022-08-10T08:19:32.825Z,46.61
2022-08-10T08:24:10.410Z,46.61
2022-08-10T08:24:52.400Z,46.15
2022-08-10T08:27:22.706Z,45.85
2022-08-10T08:29:52.816Z,45.80
2022-08-10T08:32:24.184Z,45.81
2022-08-10T08:34:56.035Z,45.54
2022-08-10T08:38:33.326Z,45.15
2022-08-10T08:40:17.899Z,44.80
2022-08-10T08:42:54.901Z,44.74
2022-08-10T08:45:25.443Z,44.49
2022-08-10T08:48:05.627Z,43.98
2022-08-10T08:50:41.717Z,44.35
2022-08-10T08:53:22.157Z,43.87
2022-08-10T08:56:05.531Z,43.42
2022-08-10T08:58:40.404Z,42.87
2022-08-10T09:01:22.390Z,42.57
2022-08-10T09:03:59.781Z,43.24
2022-08-10T09:06:35.471Z,43.35
2022-08-10T09:09:24.827Z,42.31
2022-08-10T09:12:00.631Z,42.07
2022-08-10T09:14:32.261Z,41.24
2022-08-10T09:17:04.905Z,41.10
2022-08-10T09:19:38.151Z,40.46
2022-08-10T09:22:17.935Z,40.38
2022-08-10T09:24:58.268Z,40.35
2022-08-10T09:27:28.545Z,39.94
2022-08-10T09:30:03.952Z,39.35
2022-08-10T09:36:15.645Z,39.33
2022-08-10T09:36:24.066Z,37.54
2022-08-10T09:38:26.636Z,36.89
2022-08-10T09:41:04.992Z,36.53
2022-08-10T09:43:42.657Z,36.06
2022-08-10T09:46:15.658Z,35.90
2022-08-10T09:48:47.441Z,35.51
2022-08-10T09:54:17.945Z,34.84
2022-08-10T09:56:50.065Z,35.17
2022-08-10T09:59:27.281Z,34.72
2022-08-10T10:02:15.706Z,33.82
2022-08-10T10:04:47.699Z,32.47
2022-08-10T10:07:18.948Z,34.01
2022-08-10T10:09:49.729Z,35.03
2022-08-10T10:12:21.364Z,34.62
2022-08-10T10:15:24.407Z,34.81
2022-08-10T10:18:12.265Z,34.81
2022-08-10T10:20:43.059Z,35.31
2022-08-10T10:23:16.176Z,35.08
2022-08-10T10:25:51.630Z,34.63
2022-08-10T10:28:25.365Z,34.51
2022-08-10T10:31:17.933Z,34.62
2022-08-10T10:33:51.552Z,34.77
2022-08-10T10:36:21.564Z,33.67
2022-08-10T10:38:51.596Z,34.28
2022-08-10T10:41:25.786Z,34.81
2022-08-10T10:43:59.963Z,34.76
2022-08-10T10:46:52.371Z,34.12
2022-08-10T10:49:24.590Z,34.10
2022-08-10T10:51:56.139Z,34.47
2022-08-10T10:54:34.199Z,33.61
2022-08-10T10:57:05.624Z,33.60
2022-08-10T10:59:55.016Z,33.14
2022-08-10T11:02:32.909Z,32.65
2022-08-10T11:05:06.561Z,32.56
2022-08-10T11:07:38.038Z,32.70
2022-08-10T11:10:33.024Z,32.43
2022-08-10T11:14:24.651Z,32.29
2022-08-10T11:16:01.553Z,31.53
2022-08-10T11:18:34.768Z,31.04
2022-08-10T11:21:05.560Z,31.45
2022-08-10T11:23:36.984Z,31.73
2022-08-10T11:26:10.251Z,32.00
2022-08-10T11:28:40.625Z,32.60
2022-08-10T11:31:12.185Z,32.52
2022-08-10T11:34:03.814Z,32.67
2022-08-10T11:36:33.253Z,32.82
2022-08-10T11:39:14.325Z,32.60
2022-08-10T11:42:11.703Z,33.03
2022-08-10T11:44:42.045Z,33.37
2022-08-10T11:47:12.844Z,33.86
2022-08-10T11:49:45.996Z,33.83
2022-08-10T11:52:16.901Z,33.59
2022-08-10T11:54:48.837Z,33.78
2022-08-10T11:57:21.834Z,33.97
2022-08-10T12:00:00.980Z,34.51
2022-08-10T12:02:33.455Z,34.70
2022-08-10T12:05:05.284Z,34.86
2022-08-10T12:09:24.007Z,34.96
2022-08-10T12:10:26.006Z,35.17
2022-08-10T12:12:57.014Z,35.03
2022-08-10T12:15:28.708Z,34.89
2022-08-10T12:18:00.080Z,34.17
2022-08-10T12:20:31.249Z,33.73
2022-08-10T12:23:02.050Z,33.30
2022-08-10T12:25:57.423Z,32.89
2022-08-10T12:28:50.937Z,33.05
2022-08-10T12:31:21.228Z,33.24
2022-08-10T12:34:01.315Z,33.44
2022-08-10T12:36:35.629Z,33.47
2022-08-10T12:39:06.840Z,33.67
2022-08-10T12:41:44.979Z,33.46
2022-08-10T12:44:18.020Z,33.36
2022-08-10T12:46:51.635Z,33.05
2022-08-10T12:49:22.951Z,32.25
2022-08-10T12:51:55.125Z,31.82
2022-08-10T12:54:32.343Z,31.96
2022-08-10T12:57:04.020Z,31.32
2022-08-10T12:59:43.455Z,31.16
2022-08-10T13:02:16.775Z,31.28
2022-08-10T13:04:47.177Z,31.30
2022-08-10T13:08:24.748Z,31.80
2022-08-10T13:10:11.952Z,31.92
2022-08-10T13:12:42.269Z,31.82
2022-08-10T13:15:45.823Z,31.71
2022-08-10T13:18:04.944Z,31.84
2022-08-10T13:20:35.950Z,32.06
2022-08-10T13:23:07.202Z,32.09
2022-08-10T13:25:38.232Z,32.06
2022-08-10T13:28:35.693Z,31.98
2022-08-10T13:30:58.881Z,32.32
2022-08-10T13:34:41.096Z,32.49
2022-08-10T13:36:22.170Z,32.88
2022-08-10T13:38:52.042Z,33.28
2022-08-10T13:41:21.754Z,32.80
2022-08-10T13:43:53.551Z,32.64
2022-08-10T13:46:23.792Z,32.84
2022-08-10T13:48:54.566Z,32.92
2022-08-10T13:51:53.957Z,32.59
2022-08-10T13:54:16.561Z,32.49
2022-08-10T13:56:47.260Z,32.68
2022-08-10T13:59:17.246Z,32.67
2022-08-10T14:01:49.493Z,32.41
2022-08-10T14:04:20.267Z,32.52
2022-08-10T14:06:55.874Z,32.60
2022-08-10T14:09:27.267Z,32.73
2022-08-10T14:11:57.691Z,32.82
2022-08-10T14:14:28.908Z,32.88
2022-08-10T14:16:58.795Z,32.94
2022-08-10T14:19:30.382Z,32.85
2022-08-10T14:22:00.152Z,33.01
2022-08-10T14:24:30.436Z,33.02
2022-08-10T14:27:01.496Z,33.31
2022-08-10T14:29:31.539Z,33.13
2022-08-10T14:32:02.451Z,33.23
2022-08-10T14:36:15.521Z,33.36
2022-08-10T14:37:25.882Z,33.70
2022-08-10T14:39:58.173Z,33.77
2022-08-10T14:42:29.561Z,34.08
2022-08-10T14:45:00.307Z,34.46
2022-08-10T14:48:03.297Z,34.31
2022-08-10T14:50:32.509Z,34.43
2022-08-10T14:53:09.241Z,34.53
2022-08-10T14:55:59.264Z,34.89
2022-08-10T14:58:31.661Z,34.89
2022-08-10T15:01:01.667Z,35.15
2022-08-10T15:03:59.425Z,35.18
2022-08-10T15:06:31.022Z,35.44
2022-08-10T15:09:18.817Z,35.11
2022-08-10T15:12:15.293Z,35.01
2022-08-10T15:14:43.922Z,35.11
2022-08-10T15:17:17.536Z,35.05
2022-08-10T15:20:03.329Z,34.75
2022-08-10T15:22:42.006Z,34.64
2022-08-10T15:25:18.970Z,34.85
2022-08-10T15:27:55.740Z,34.95
2022-08-10T15:30:30.883Z,35.34
2022-08-10T15:33:20.906Z,35.72
2022-08-10T15:36:27.669Z,36.06
2022-08-10T15:39:00.219Z,36.28
2022-08-10T15:41:57.406Z,36.33
2022-08-10T15:44:33.281Z,36.66
2022-08-10T15:47:05.800Z,36.76
2022-08-10T15:49:37.399Z,36.96
2022-08-10T15:52:08.198Z,36.82
2022-08-10T15:54:41.502Z,37.32
2022-08-10T15:57:13.716Z,37.42
2022-08-10T15:59:44.952Z,37.58
2022-08-10T16:02:17.572Z,37.90
2022-08-10T16:04:49.525Z,38.37
2022-08-10T16:07:20.700Z,38.37
2022-08-10T16:10:22.306Z,38.49
2022-08-10T16:12:42.365Z,38.48
2022-08-10T16:15:13.288Z,38.62
2022-08-10T16:17:55.686Z,38.80
2022-08-10T16:20:27.749Z,39.12
2022-08-10T16:22:59.105Z,39.50
2022-08-10T16:25:48.138Z,39.39
2022-08-10T16:28:19.998Z,39.43
2022-08-10T16:30:54.122Z,39.42
2022-08-10T16:33:52.518Z,39.59
2022-08-10T16:36:16.213Z,39.70
2022-08-10T16:38:47.127Z,39.95
2022-08-10T16:42:00.212Z,40.05
2022-08-10T16:44:07.252Z,40.30
2022-08-10T16:46:37.109Z,40.64
2022-08-10T16:49:06.993Z,40.87
2022-08-10T16:51:36.969Z,41.12
2022-08-10T16:54:07.147Z,41.26
2022-08-10T16:56:49.147Z,41.35
2022-08-10T16:59:24.196Z,41.50
2022-08-10T17:01:54.777Z,41.69
2022-08-10T17:04:25.266Z,41.94
2022-08-10T17:06:57.050Z,41.94
2022-08-10T17:09:28.038Z,42.13
2022-08-10T17:11:58.466Z,42.31
2022-08-10T17:14:28.978Z,42.40
2022-08-10T17:17:00.522Z,42.65
2022-08-10T17:19:31.468Z,43.00
2022-08-10T17:22:01.678Z,43.24
2022-08-10T17:24:32.135Z,43.52
2022-08-10T17:28:05.822Z,43.67
2022-08-10T17:30:02.779Z,44.02
2022-08-10T17:32:44.303Z,44.44
2022-08-10T17:35:21.042Z,44.73
2022-08-10T17:37:56.797Z,44.98
2022-08-10T17:40:27.809Z,45.18
2022-08-10T17:42:58.048Z,45.37
2022-08-10T17:45:47.841Z,45.52
2022-08-10T17:48:19.182Z,45.67
2022-08-10T17:50:51.620Z,45.78
2022-08-10T17:53:22.196Z,45.82
2022-08-10T17:55:58.298Z,46.16
2022-08-10T17:58:28.298Z,46.38
2022-08-10T18:01:26.276Z,46.66
2022-08-10T18:03:51.520Z,46.91
2022-08-10T18:06:21.608Z,47.23
2022-08-10T18:08:54.813Z,47.39
2022-08-10T18:11:25.589Z,47.74
2022-08-10T18:14:02.075Z,47.96
2022-08-10T18:16:33.948Z,48.12
2022-08-10T18:19:06.771Z,48.58
2022-08-10T18:21:38.971Z,48.88
2022-08-10T18:24:16.465Z,49.26
2022-08-10T18:26:47.475Z,49.61
2022-08-10T18:29:18.749Z,49.90
2022-08-10T18:31:50.694Z,50.08
2022-08-10T18:34:22.161Z,50.24
2022-08-10T18:36:52.375Z,50.40
2022-08-10T18:39:23.535Z,50.76
2022-08-10T18:42:00.249Z,50.97
2022-08-10T18:44:36.511Z,51.16
2022-08-10T18:47:08.841Z,51.32
2022-08-10T18:49:43.173Z,51.78
2022-08-10T18:52:14.441Z,51.97
2022-08-10T18:54:46.116Z,52.14
2022-08-10T18:57:22.727Z,52.19
2022-08-10T19:00:07.982Z,52.37
2022-08-10T19:02:57.932Z,52.65
2022-08-10T19:05:32.453Z,52.75
2022-08-10T19:08:19.495Z,52.93
2022-08-10T19:11:03.734Z,52.94
2022-08-10T19:13:38.515Z,52.97
2022-08-10T19:16:14.992Z,52.75
2022-08-10T19:18:47.101Z,52.73
2022-08-10T19:21:18.374Z,52.65
2022-08-10T19:23:56.031Z,52.66
2022-08-10T19:26:42.169Z,52.66
2022-08-10T19:30:09.857Z,52.49
2022-08-10T19:32:26.007Z,52.51
2022-08-10T19:35:00.091Z,52.46
2022-08-10T19:37:33.833Z,52.52
2022-08-10T19:40:18.267Z,52.79
2022-08-10T19:42:54.035Z,52.84
2022-08-10T19:46:01.108Z,52.89
2022-08-10T19:48:20.796Z,53.12
2022-08-10T19:50:55.230Z,53.17
2022-08-10T19:53:26.706Z,53.29
2022-08-10T19:56:13.147Z,53.38
2022-08-10T19:58:50.102Z,53.55
2022-08-10T20:01:20.162Z,53.54
2022-08-10T20:03:51.223Z,53.62
2022-08-10T20:06:23.990Z,53.63
2022-08-10T20:08:57.929Z,53.60
2022-08-10T20:11:44.086Z,53.63
2022-08-10T20:14:22.105Z,53.61
2022-08-10T20:16:53.496Z,53.64
2022-08-10T20:19:53.441Z,53.69
2022-08-10T20:22:29.142Z,53.65
2022-08-10T20:25:04.477Z,53.56
2022-08-10T20:28:06.823Z,53.43
2022-08-10T20:30:28.803Z,53.46
2022-08-10T20:33:00.032Z,53.42
2022-08-10T20:35:32.505Z,53.28
2022-08-10T20:38:05.150Z,53.50
2022-08-10T20:40:36.612Z,53.68
2022-08-10T20:43:08.640Z,53.76
2022-08-10T20:46:05.150Z,53.88
2022-08-10T20:48:33.870Z,53.89
2022-08-10T20:51:04.018Z,53.66
2022-08-10T20:53:35.152Z,53.53
2022-08-10T20:56:18.768Z,53.49
2022-08-10T20:59:05.469Z,53.71
2022-08-10T21:02:05.929Z,53.74
2022-08-10T21:04:45.384Z,53.59
2022-08-10T21:07:57.972Z,53.50
2022-08-10T21:10:14.659Z,53.25
2022-08-10T21:12:52.204Z,53.11
2022-08-10T21:15:25.599Z,52.93
2022-08-10T21:18:00.292Z,52.32
2022-08-10T21:20:39.745Z,51.95
2022-08-10T21:23:17.444Z,52.41
2022-08-10T21:25:48.402Z,52.42
2022-08-10T21:28:34.451Z,52.63
2022-08-10T21:31:09.611Z,52.83
2022-08-10T21:33:42.304Z,52.74
2022-08-10T21:36:13.082Z,52.67
2022-08-10T21:38:47.241Z,52.71
2022-08-10T21:41:57.464Z,52.46
2022-08-10T21:44:53.920Z,52.22
2022-08-10T21:48:07.261Z,52.04
2022-08-10T21:50:53.092Z,52.01
2022-08-10T21:53:45.104Z,52.29
2022-08-10T21:56:36.475Z,52.43
2022-08-10T21:59:24.076Z,52.53
2022-08-10T22:02:12.339Z,52.57
2022-08-10T22:04:59.756Z,52.71
2022-08-10T22:07:48.361Z,52.80
2022-08-10T22:10:36.253Z,52.91
2022-08-10T22:13:24.280Z,53.03
2022-08-10T22:16:13.094Z,53.13
2022-08-10T22:19:02.988Z,53.24
2022-08-10T22:21:57.421Z,53.31
2022-08-10T22:24:47.256Z,53.40
2022-08-10T22:27:46.692Z,53.26
2022-08-10T22:30:36.199Z,53.31
2022-08-10T22:33:32.926Z,53.39
2022-08-10T22:36:32.430Z,53.27
2022-08-10T22:40:11.551Z,53.21
2022-08-10T22:42:59.422Z,54.40
2022-08-10T22:45:43.922Z,54.80
2022-08-10T22:48:31.431Z,54.82
2022-08-10T22:51:08.415Z,54.84
2022-08-10T22:54:11.334Z,54.73
2022-08-10T22:57:19.376Z,54.87
2022-08-10T22:59:49.487Z,54.96
2022-08-10T23:02:23.524Z,55.15
2022-08-10T23:04:54.206Z,54.76
2022-08-10T23:07:25.282Z,54.40
2022-08-10T23:09:59.543Z,54.11
2022-08-10T23:12:31.962Z,53.77
2022-08-10T23:15:19.565Z,53.73
2022-08-10T23:18:09.775Z,52.52
2022-08-10T23:20:39.667Z,52.34
2022-08-10T23:23:10.946Z,52.40
2022-08-10T23:25:56.557Z,52.02
2022-08-10T23:28:58.234Z,51.02
2022-08-10T23:31:58.394Z,50.54
2022-08-10T23:34:08.953Z,51.20
2022-08-10T23:36:39.389Z,50.55
2022-08-10T23:39:26.806Z,50.62
2022-08-10T23:42:01.934Z,50.41
2022-08-10T23:44:38.790Z,50.22
2022-08-10T23:47:08.891Z,50.34
2022-08-10T23:49:40.301Z,49.99
2022-08-10T23:52:12.153Z,49.59
2022-08-10T23:54:50.375Z,48.87
2022-08-10T23:57:21.405Z,48.52
2022-08-10T23:59:52.639Z,47.96
